createdAt,value
2023-01-31T00:01:33.044Z,3.24
2023-01-31T00:04:01.537Z,3.02
2023-01-31T00:06:37.382Z,3.15
2023-01-31T00:09:05.920Z,3.48
2023-01-31T00:11:32.764Z,3.56
2023-01-31T00:14:00.556Z,3.43
2023-01-31T00:16:27.327Z,3.22
2023-01-31T00:18:53.712Z,3.24
2023-01-31T00:21:26.340Z,3.15
2023-01-31T00:23:54.626Z,2.95
2023-01-31T00:26:25.206Z,2.86
2023-01-31T00:28:53.599Z,2.88
2023-01-31T00:31:21.649Z,2.87
2023-01-31T00:33:49.415Z,2.99
2023-01-31T00:36:17.971Z,3.15
2023-01-31T00:38:44.746Z,3.18
2023-01-31T00:41:11.984Z,3.31
2023-01-31T00:43:38.686Z,3.32
2023-01-31T00:46:05.488Z,3.45
2023-01-31T00:48:32.310Z,3.43
2023-01-31T00:50:58.674Z,3.38
2023-01-31T00:53:25.621Z,3.26
2023-01-31T00:55:54.176Z,3.12
2023-01-31T00:58:20.772Z,3.01
2023-01-31T01:00:48.133Z,2.98
2023-01-31T01:03:14.736Z,2.79
2023-01-31T01:05:41.664Z,2.69
2023-01-31T01:08:08.208Z,2.72
2023-01-31T01:10:34.704Z,2.80
2023-01-31T01:13:01.467Z,2.76
2023-01-31T01:15:27.875Z,3.03
2023-01-31T01:17:55.905Z,3.10
2023-01-31T01:20:22.250Z,2.69
2023-01-31T01:22:48.612Z,2.74
2023-01-31T01:25:14.995Z,2.80
2023-01-31T01:27:41.345Z,2.89
2023-01-31T01:30:08.613Z,3.01
2023-01-31T01:32:34.952Z,2.91
2023-01-31T01:35:01.925Z,2.99
2023-01-31T01:37:28.376Z,2.98
2023-01-31T01:39:54.725Z,2.91
2023-01-31T01:42:23.973Z,2.82
2023-01-31T01:44:59.811Z,2.81
2023-01-31T01:47:37.959Z,2.84
2023-01-31T01:50:07.510Z,2.78
2023-01-31T01:52:38.916Z,2.67
2023-01-31T01:55:21.668Z,2.62
2023-01-31T01:57:52.622Z,2.67
2023-01-31T02:00:27.609Z,2.62
2023-01-31T02:02:58.333Z,2.58
2023-01-31T02:05:31.089Z,2.67
2023-01-31T02:07:59.799Z,2.81
2023-01-31T02:10:42.281Z,2.93
2023-01-31T02:13:09.357Z,2.91
2023-01-31T02:15:36.018Z,2.99
2023-01-31T02:18:02.423Z,3.30
2023-01-31T02:21:05.346Z,3.36
2023-01-31T02:23:47.991Z,3.45
2023-01-31T02:26:43.370Z,3.54
2023-01-31T02:29:34.261Z,3.35
2023-01-31T02:32:19.390Z,3.17
2023-01-31T02:34:55.103Z,2.90
2023-01-31T02:37:44.421Z,3.10
2023-01-31T02:40:28.873Z,3.15
2023-01-31T02:43:12.316Z,3.41
2023-01-31T02:45:47.780Z,3.40
2023-01-31T02:48:30.946Z,3.53
2023-01-31T02:51:07.962Z,3.80
2023-01-31T02:53:37.208Z,4.00
2023-01-31T02:56:20.187Z,4.23
2023-01-31T02:58:58.243Z,4.30
2023-01-31T03:01:42.015Z,4.40
2023-01-31T03:04:11.346Z,4.33
2023-01-31T03:06:37.660Z,3.70
2023-01-31T03:09:06.274Z,3.54
2023-01-31T03:12:01.109Z,3.59
2023-01-31T03:14:35.104Z,3.45
2023-01-31T03:17:31.062Z,3.17
2023-01-31T03:20:16.087Z,3.08
2023-01-31T03:22:47.051Z,3.29
2023-01-31T03:25:17.095Z,3.03
2023-01-31T03:27:49.915Z,3.31
2023-01-31T03:30:23.928Z,3.46
2023-01-31T03:32:58.570Z,3.54
2023-01-31T03:35:29.652Z,3.82
2023-01-31T03:38:11.328Z,4.18
2023-01-31T03:40:43.725Z,4.10
2023-01-31T03:43:22.208Z,4.16
2023-01-31T03:45:55.760Z,4.42
2023-01-31T03:48:26.669Z,4.61
2023-01-31T03:50:58.801Z,4.66
2023-01-31T03:53:32.608Z,4.77
2023-01-31T03:56:04.569Z,4.78
2023-01-31T03:58:38.260Z,4.86
2023-01-31T04:01:08.066Z,4.84
2023-01-31T04:03:42.548Z,4.91
2023-01-31T04:06:10.265Z,4.89
2023-01-31T04:08:37.241Z,4.87
2023-01-31T04:11:06.072Z,4.89
2023-01-31T04:13:32.474Z,4.89
2023-01-31T04:15:58.867Z,4.84
2023-01-31T04:18:25.256Z,4.87
2023-01-31T04:20:51.600Z,4.85
2023-01-31T04:23:18.844Z,4.86
2023-01-31T04:25:45.771Z,4.81
2023-01-31T04:28:12.162Z,4.79
2023-01-31T04:30:38.563Z,4.72
2023-01-31T04:33:04.943Z,4.71
2023-01-31T04:35:31.978Z,4.71
2023-01-31T04:37:58.351Z,4.61
2023-01-31T04:40:24.676Z,4.62
2023-01-31T04:42:51.047Z,4.62
2023-01-31T04:45:17.538Z,4.24
2023-01-31T04:47:43.873Z,4.29
2023-01-31T04:50:10.798Z,4.41
2023-01-31T04:52:37.120Z,4.36
2023-01-31T04:55:03.591Z,4.44
2023-01-31T04:57:30.128Z,4.44
2023-01-31T04:59:56.519Z,4.43
2023-01-31T05:02:23.246Z,4.42
2023-01-31T05:04:49.638Z,4.43
2023-01-31T05:07:15.961Z,4.42
2023-01-31T05:09:45.168Z,4.44
2023-01-31T05:12:11.504Z,4.45
2023-01-31T05:14:37.905Z,4.42
2023-01-31T05:17:04.530Z,4.43
2023-01-31T05:19:31.490Z,4.44
2023-01-31T05:22:00.844Z,4.43
2023-01-31T05:24:32.941Z,4.36
2023-01-31T05:27:01.651Z,4.38
2023-01-31T05:29:29.628Z,4.32
2023-01-31T05:31:57.956Z,4.31
2023-01-31T05:34:25.487Z,4.19
2023-01-31T05:36:55.647Z,4.17
2023-01-31T05:39:22.729Z,4.21
2023-01-31T05:41:49.047Z,4.26
2023-01-31T05:44:16.287Z,4.25
2023-01-31T05:46:43.063Z,4.29
2023-01-31T05:49:09.632Z,4.30
2023-01-31T05:51:35.988Z,4.27
2023-01-31T05:54:02.869Z,4.24
2023-01-31T05:56:29.276Z,4.27
2023-01-31T05:58:55.615Z,4.27
2023-01-31T06:01:24.573Z,4.26
2023-01-31T06:03:51.431Z,4.26
2023-01-31T06:06:17.984Z,4.25
2023-01-31T06:08:44.327Z,4.23
2023-01-31T06:11:12.021Z,4.22
2023-01-31T06:13:39.549Z,4.12
2023-01-31T06:16:06.634Z,3.54
2023-01-31T06:18:33.112Z,3.25
2023-01-31T06:20:59.862Z,3.23
2023-01-31T06:23:26.391Z,3.46
2023-01-31T06:25:54.026Z,3.75
2023-01-31T06:28:20.473Z,3.60
2023-01-31T06:30:47.203Z,3.82
2023-01-31T06:33:14.021Z,3.53
2023-01-31T06:35:40.852Z,3.75
2023-01-31T06:38:08.141Z,3.70
2023-01-31T06:40:36.458Z,3.79
2023-01-31T06:43:02.999Z,3.96
2023-01-31T06:45:29.585Z,4.09
2023-01-31T06:47:56.117Z,4.12
2023-01-31T06:50:22.948Z,4.12
2023-01-31T06:52:49.308Z,4.12
2023-01-31T06:55:15.770Z,4.09
2023-01-31T06:57:49.749Z,4.09
2023-01-31T07:00:18.681Z,4.03
2023-01-31T07:02:46.028Z,4.02
2023-01-31T07:05:12.375Z,3.99
2023-01-31T07:07:38.827Z,3.73
2023-01-31T07:10:05.713Z,3.90
2023-01-31T07:12:32.438Z,3.93
2023-01-31T07:14:58.842Z,4.05
2023-01-31T07:17:25.180Z,3.98
2023-01-31T07:19:51.580Z,3.85
2023-01-31T07:22:18.135Z,3.54
2023-01-31T07:24:44.531Z,3.35
2023-01-31T07:27:13.348Z,3.16
2023-01-31T07:29:39.761Z,2.70
2023-01-31T07:32:06.960Z,2.70
2023-01-31T07:34:33.473Z,3.05
2023-01-31T07:37:01.157Z,3.23
2023-01-31T07:39:28.526Z,3.43
2023-01-31T07:41:55.607Z,3.55
2023-01-31T07:44:21.946Z,3.69
2023-01-31T07:46:48.575Z,3.70
2023-01-31T07:49:14.969Z,3.68
2023-01-31T07:51:41.322Z,3.71
2023-01-31T07:54:07.695Z,3.78
2023-01-31T07:56:34.026Z,3.82
2023-01-31T07:59:00.374Z,3.61
2023-01-31T08:01:49.503Z,3.77
2023-01-31T08:04:22.066Z,3.86
2023-01-31T08:06:50.727Z,3.92
2023-01-31T08:09:17.102Z,3.98
2023-01-31T08:11:43.631Z,3.95
2023-01-31T08:14:10.032Z,3.98
2023-01-31T08:16:36.844Z,3.83
2023-01-31T08:19:03.540Z,3.83
2023-01-31T08:21:30.425Z,4.03
2023-01-31T08:23:57.241Z,4.16
2023-01-31T08:26:23.739Z,4.11
2023-01-31T08:28:51.863Z,4.26
2023-01-31T08:31:21.191Z,4.31
2023-01-31T08:33:48.261Z,4.18
2023-01-31T08:36:18.772Z,4.03
2023-01-31T08:38:45.567Z,4.22
2023-01-31T08:41:13.132Z,4.32
2023-01-31T08:43:54.283Z,4.26
2023-01-31T08:46:21.921Z,4.38
2023-01-31T08:48:48.349Z,4.21
2023-01-31T08:51:14.725Z,3.89
2023-01-31T08:53:44.635Z,3.91
2023-01-31T08:56:12.627Z,3.83
2023-01-31T08:58:41.942Z,3.38
2023-01-31T09:01:11.402Z,3.08
2023-01-31T09:03:38.288Z,2.87
2023-01-31T09:06:08.211Z,2.59
2023-01-31T09:08:34.769Z,2.39
2023-01-31T09:11:01.956Z,2.40
2023-01-31T09:13:30.137Z,2.55
2023-01-31T09:16:11.332Z,2.72
2023-01-31T09:18:39.807Z,3.10
2023-01-31T09:21:11.707Z,3.54
2023-01-31T09:23:40.698Z,3.40
2023-01-31T09:26:08.918Z,3.44
2023-01-31T09:28:35.301Z,3.44
2023-01-31T09:31:10.446Z,3.31
2023-01-31T09:33:37.130Z,3.63
2023-01-31T09:36:15.320Z,3.75
2023-01-31T09:38:42.032Z,3.51
2023-01-31T09:41:26.392Z,3.43
2023-01-31T09:43:58.223Z,3.46
2023-01-31T09:46:28.501Z,3.79
2023-01-31T09:48:57.920Z,3.81
2023-01-31T09:51:24.473Z,3.82
2023-01-31T09:53:51.050Z,3.52
2023-01-31T09:56:50.748Z,3.55
2023-01-31T09:59:25.930Z,3.42
2023-01-31T10:02:01.051Z,3.45
2023-01-31T10:04:48.945Z,3.47
2023-01-31T10:07:28.630Z,3.72
2023-01-31T10:10:02.554Z,3.61
2023-01-31T10:12:43.429Z,3.71
2023-01-31T10:15:33.776Z,3.66
2023-01-31T10:18:06.232Z,3.74
2023-01-31T10:20:41.032Z,3.67
2023-01-31T10:23:30.256Z,3.60
2023-01-31T10:26:10.615Z,3.66
2023-01-31T10:28:54.807Z,3.80
2023-01-31T10:31:44.694Z,3.64
2023-01-31T10:34:34.977Z,3.44
2023-01-31T10:37:07.209Z,3.61
2023-01-31T10:39:46.942Z,3.69
2023-01-31T10:42:32.626Z,3.75
2023-01-31T10:45:13.291Z,3.79
2023-01-31T10:47:46.576Z,3.82
2023-01-31T10:50:43.500Z,3.93
2023-01-31T10:53:35.948Z,3.89
2023-01-31T10:56:36.936Z,4.02
2023-01-31T10:59:11.211Z,4.13
2023-01-31T11:01:37.654Z,4.29
2023-01-31T11:04:22.172Z,4.13
2023-01-31T11:06:48.585Z,4.10
2023-01-31T11:09:16.453Z,4.15
2023-01-31T11:12:00.687Z,4.08
2023-01-31T11:14:29.790Z,4.01
2023-01-31T11:17:00.941Z,4.07
2023-01-31T11:19:31.964Z,4.10
2023-01-31T11:21:59.235Z,4.45
2023-01-31T11:24:31.194Z,4.45
2023-01-31T11:27:06.290Z,4.25
2023-01-31T11:29:48.559Z,4.44
2023-01-31T11:32:22.299Z,4.40
2023-01-31T11:35:14.961Z,4.33
2023-01-31T11:37:57.943Z,4.33
2023-01-31T11:40:32.224Z,4.26
2023-01-31T11:43:26.566Z,4.27
2023-01-31T11:46:02.685Z,4.27
2023-01-31T11:48:42.775Z,4.24
2023-01-31T11:51:13.375Z,4.17
2023-01-31T11:53:42.774Z,4.33
2023-01-31T11:56:23.663Z,4.44
2023-01-31T11:58:55.032Z,4.43
2023-01-31T12:01:24.352Z,4.26
2023-01-31T12:04:03.090Z,4.29
2023-01-31T12:06:37.575Z,4.48
2023-01-31T12:09:23.052Z,4.30
2023-01-31T12:11:52.258Z,4.15
2023-01-31T12:14:22.107Z,4.21
2023-01-31T12:16:50.195Z,4.24
2023-01-31T12:19:30.814Z,4.56
2023-01-31T12:22:05.692Z,4.39
2023-01-31T12:24:53.559Z,4.64
2023-01-31T12:27:46.722Z,4.63
2023-01-31T12:30:39.232Z,4.64
2023-01-31T12:33:20.079Z,4.44
2023-01-31T12:35:52.507Z,4.81
2023-01-31T12:38:46.174Z,4.90
2023-01-31T12:41:29.516Z,5.14
2023-01-31T12:44:37.324Z,5.13
2023-01-31T12:47:25.825Z,4.94
2023-01-31T12:50:17.164Z,5.21
2023-01-31T12:53:02.490Z,5.27
2023-01-31T12:55:46.654Z,5.34
2023-01-31T12:58:42.467Z,5.01
2023-01-31T13:01:21.531Z,4.79
2023-01-31T13:04:24.061Z,4.73
2023-01-31T13:06:55.432Z,4.85
2023-01-31T13:09:32.212Z,4.98
2023-01-31T13:12:03.035Z,4.88
2023-01-31T13:14:33.083Z,4.98
2023-01-31T13:17:03.638Z,4.83
2023-01-31T13:19:50.474Z,4.56
2023-01-31T13:22:22.603Z,4.55
2023-01-31T13:24:59.302Z,4.52
2023-01-31T13:27:39.293Z,4.66
2023-01-31T13:30:27.819Z,4.78
2023-01-31T13:32:56.282Z,4.90
2023-01-31T13:35:40.672Z,4.98
2023-01-31T13:38:14.968Z,5.02
2023-01-31T13:40:51.135Z,5.34
2023-01-31T13:43:18.733Z,5.37
2023-01-31T13:46:08.225Z,5.25
2023-01-31T13:48:40.912Z,5.10
2023-01-31T13:51:17.770Z,5.07
2023-01-31T13:54:07.403Z,5.11
2023-01-31T13:56:36.283Z,5.13
2023-01-31T13:59:06.844Z,5.09
2023-01-31T14:01:36.718Z,5.06
2023-01-31T14:04:15.373Z,5.03
2023-01-31T14:07:08.224Z,5.09
2023-01-31T14:09:37.473Z,4.90
2023-01-31T14:12:09.818Z,5.23
2023-01-31T14:14:39.774Z,5.00
2023-01-31T14:17:33.864Z,4.97
2023-01-31T14:20:06.137Z,5.32
2023-01-31T14:22:37.095Z,5.22
2023-01-31T14:25:13.674Z,5.10
2023-01-31T14:27:52.281Z,4.97
2023-01-31T14:30:26.985Z,4.85
2023-01-31T14:33:14.298Z,4.72
2023-01-31T14:35:49.840Z,4.65
2023-01-31T14:38:29.844Z,4.65
2023-01-31T14:41:21.721Z,4.64
2023-01-31T14:44:10.127Z,4.64
2023-01-31T14:47:01.218Z,4.64
2023-01-31T14:49:55.128Z,4.56
2023-01-31T14:52:36.101Z,4.59
2023-01-31T14:55:21.573Z,4.71
2023-01-31T14:57:52.473Z,4.64
2023-01-31T15:00:25.839Z,4.57
2023-01-31T15:03:04.233Z,4.52
2023-01-31T15:05:30.541Z,4.56
2023-01-31T15:08:06.040Z,4.60
2023-01-31T15:10:55.910Z,4.58
2023-01-31T15:13:40.303Z,4.56
2023-01-31T15:16:23.950Z,4.53
2023-01-31T15:19:19.290Z,4.70
2023-01-31T15:21:48.539Z,4.72
2023-01-31T15:24:24.348Z,4.78
2023-01-31T15:26:51.815Z,4.67
2023-01-31T15:29:32.802Z,4.58
2023-01-31T15:32:09.037Z,4.60
2023-01-31T15:34:56.028Z,4.73
2023-01-31T15:37:26.647Z,4.62
2023-01-31T15:39:58.553Z,4.63
2023-01-31T15:42:30.898Z,4.72
2023-01-31T15:45:14.726Z,4.60
2023-01-31T15:47:41.105Z,4.59
2023-01-31T15:50:18.433Z,4.54
2023-01-31T15:52:45.080Z,4.57
2023-01-31T15:55:17.216Z,4.52
2023-01-31T15:57:57.876Z,4.46
2023-01-31T16:00:28.840Z,4.42
2023-01-31T16:03:02.248Z,4.45
2023-01-31T16:05:32.790Z,4.33
2023-01-31T16:08:15.433Z,4.39
2023-01-31T16:10:44.217Z,4.48
2023-01-31T16:13:11.531Z,4.49
2023-01-31T16:15:38.627Z,4.61
2023-01-31T16:18:05.128Z,4.50
2023-01-31T16:20:52.113Z,4.63
2023-01-31T16:23:30.631Z,4.59
2023-01-31T16:26:15.462Z,4.56
2023-01-31T16:28:54.587Z,4.48
2023-01-31T16:31:23.631Z,4.47
2023-01-31T16:33:52.889Z,4.50
2023-01-31T16:36:34.339Z,4.67
2023-01-31T16:39:03.428Z,4.53
2023-01-31T16:41:46.775Z,4.49
2023-01-31T16:44:18.270Z,4.64
2023-01-31T16:46:46.482Z,4.69
2023-01-31T16:49:23.726Z,4.77
2023-01-31T16:51:54.405Z,4.84
2023-01-31T16:54:30.845Z,4.63
2023-01-31T16:57:03.515Z,4.63
2023-01-31T16:59:38.784Z,4.71
2023-01-31T17:02:08.102Z,4.76
2023-01-31T17:04:38.504Z,4.70
2023-01-31T17:07:18.142Z,4.64
2023-01-31T17:09:45.653Z,4.59
2023-01-31T17:12:21.869Z,4.64
2023-01-31T17:14:48.795Z,4.70
2023-01-31T17:17:20.630Z,4.73
2023-01-31T17:19:48.232Z,4.72
2023-01-31T17:22:15.214Z,4.81
2023-01-31T17:24:41.599Z,4.74
2023-01-31T17:27:13.286Z,4.73
2023-01-31T17:29:39.609Z,4.88
2023-01-31T17:32:05.966Z,4.92
2023-01-31T17:34:33.523Z,4.90
2023-01-31T17:36:59.955Z,5.06
2023-01-31T17:39:26.321Z,5.03
2023-01-31T17:41:52.708Z,5.19
2023-01-31T17:44:21.906Z,5.31
2023-01-31T17:46:48.601Z,5.54
2023-01-31T17:49:15.036Z,5.59
2023-01-31T17:51:41.460Z,5.50
2023-01-31T17:54:08.161Z,5.62
2023-01-31T17:56:34.578Z,5.77
2023-01-31T17:59:00.920Z,5.27
2023-01-31T18:01:27.320Z,5.26
2023-01-31T18:03:53.651Z,5.18
2023-01-31T18:06:20.034Z,4.96
2023-01-31T18:08:46.387Z,4.91
2023-01-31T18:11:15.402Z,4.84
2023-01-31T18:13:42.708Z,4.93
2023-01-31T18:16:18.251Z,4.91
2023-01-31T18:18:44.687Z,4.67
2023-01-31T18:21:12.689Z,4.57
2023-01-31T18:23:39.119Z,4.70
2023-01-31T18:26:07.345Z,4.79
2023-01-31T18:28:34.480Z,4.81
2023-01-31T18:31:07.286Z,4.77
2023-01-31T18:33:33.785Z,4.91
2023-01-31T18:36:00.946Z,4.84
2023-01-31T18:38:28.830Z,4.74
2023-01-31T18:40:55.572Z,4.70
2023-01-31T18:43:23.012Z,4.92
2023-01-31T18:45:49.498Z,5.05
2023-01-31T18:48:15.882Z,5.03
2023-01-31T18:50:42.223Z,4.96
2023-01-31T18:53:08.780Z,4.94
2023-01-31T18:55:35.104Z,5.02
2023-01-31T18:58:01.491Z,5.03
2023-01-31T19:00:27.882Z,5.03
2023-01-31T19:02:54.812Z,4.99
2023-01-31T19:05:23.551Z,4.91
2023-01-31T19:07:50.122Z,4.93
2023-01-31T19:10:16.884Z,4.94
2023-01-31T19:12:43.232Z,4.84
2023-01-31T19:15:12.021Z,4.84
2023-01-31T19:17:38.389Z,5.00
2023-01-31T19:20:05.695Z,5.00
2023-01-31T19:22:32.133Z,4.84
2023-01-31T19:24:58.548Z,4.80
2023-01-31T19:27:25.415Z,4.85
2023-01-31T19:29:51.735Z,5.00
2023-01-31T19:32:18.274Z,5.03
2023-01-31T19:34:44.637Z,4.96
2023-01-31T19:37:10.986Z,5.00
2023-01-31T19:39:39.343Z,5.07
2023-01-31T19:42:05.734Z,5.01
2023-01-31T19:44:32.079Z,4.93
2023-01-31T19:46:58.504Z,4.92
2023-01-31T19:49:24.843Z,4.76
2023-01-31T19:51:51.220Z,4.76
2023-01-31T19:54:19.161Z,4.77
2023-01-31T19:56:45.787Z,4.71
2023-01-31T19:59:12.554Z,4.78
2023-01-31T20:01:39.217Z,4.90
2023-01-31T20:04:05.625Z,4.93
2023-01-31T20:06:33.557Z,4.86
2023-01-31T20:09:04.168Z,4.78
2023-01-31T20:11:30.552Z,4.87
2023-01-31T20:13:57.856Z,4.72
2023-01-31T20:16:24.957Z,4.73
2023-01-31T20:18:51.437Z,4.64
2023-01-31T20:21:19.671Z,4.75
2023-01-31T20:23:46.349Z,4.74
2023-01-31T20:26:13.585Z,4.77
2023-01-31T20:28:40.431Z,4.78
2023-01-31T20:31:09.538Z,4.80
2023-01-31T20:33:36.456Z,4.77
2023-01-31T20:36:03.347Z,4.95
2023-01-31T20:38:30.736Z,5.01
2023-01-31T20:40:57.113Z,4.94
2023-01-31T20:43:25.488Z,5.20
2023-01-31T20:45:52.425Z,4.92
2023-01-31T20:48:22.290Z,4.92
2023-01-31T20:50:56.242Z,4.87
2023-01-31T20:53:23.271Z,4.97
2023-01-31T20:56:10.142Z,4.67
2023-01-31T20:58:38.646Z,4.74
2023-01-31T21:01:06.895Z,4.91
2023-01-31T21:03:34.603Z,4.86
2023-01-31T21:06:02.357Z,5.06
2023-01-31T21:08:29.709Z,5.09
2023-01-31T21:10:57.734Z,5.14
2023-01-31T21:13:25.591Z,5.04
2023-01-31T21:15:52.890Z,5.03
2023-01-31T21:18:20.237Z,5.30
2023-01-31T21:20:47.587Z,5.29
2023-01-31T21:23:14.074Z,5.04
2023-01-31T21:25:40.473Z,4.96
2023-01-31T21:28:06.840Z,4.92
2023-01-31T21:30:33.236Z,5.04
2023-01-31T21:32:59.587Z,5.15
2023-01-31T21:35:26.472Z,5.02
2023-01-31T21:37:53.440Z,5.06
2023-01-31T21:40:20.435Z,4.96
2023-01-31T21:42:54.199Z,4.81
2023-01-31T21:45:40.142Z,4.86
2023-01-31T21:48:30.822Z,4.83
2023-01-31T21:50:58.625Z,4.85
2023-01-31T21:53:26.918Z,4.77
2023-01-31T21:56:07.185Z,4.90
2023-01-31T21:58:35.094Z,4.91
2023-01-31T22:01:24.930Z,5.05
2023-01-31T22:03:55.445Z,5.12
2023-01-31T22:06:30.218Z,5.06
2023-01-31T22:09:00.039Z,4.97
2023-01-31T22:11:28.579Z,5.09
2023-01-31T22:13:56.249Z,4.98
2023-01-31T22:16:22.968Z,5.01
2023-01-31T22:18:49.573Z,4.87
2023-01-31T22:21:22.758Z,4.92
2023-01-31T22:23:52.492Z,4.98
2023-01-31T22:26:27.078Z,4.89
2023-01-31T22:28:56.132Z,5.07
2023-01-31T22:31:22.893Z,5.08
2023-01-31T22:33:50.342Z,5.21
2023-01-31T22:36:17.647Z,4.97
2023-01-31T22:38:45.502Z,4.89
2023-01-31T22:41:17.123Z,4.82
2023-01-31T22:43:47.233Z,4.88
2023-01-31T22:46:16.815Z,4.69
2023-01-31T22:48:44.041Z,4.67
2023-01-31T22:51:13.289Z,4.61
2023-01-31T22:53:40.474Z,4.72
2023-01-31T22:56:20.116Z,4.74
2023-01-31T22:58:47.762Z,4.62
2023-01-31T23:01:19.789Z,4.67
2023-01-31T23:03:47.617Z,4.59
2023-01-31T23:06:14.678Z,4.53
2023-01-31T23:08:41.643Z,4.58
2023-01-31T23:11:11.169Z,4.52
2023-01-31T23:13:38.569Z,4.47
2023-01-31T23:16:07.156Z,4.57
2023-01-31T23:18:34.024Z,4.56
2023-01-31T23:21:12.944Z,4.42
2023-01-31T23:23:39.588Z,4.37
2023-01-31T23:26:06.144Z,4.46
2023-01-31T23:28:32.849Z,4.44
2023-01-31T23:30:59.323Z,4.58
2023-01-31T23:33:26.079Z,4.52
2023-01-31T23:35:52.532Z,4.42
2023-01-31T23:38:19.029Z,4.43
2023-01-31T23:40:51.344Z,4.38
2023-01-31T23:43:17.779Z,4.40
2023-01-31T23:45:44.161Z,4.34
2023-01-31T23:48:10.493Z,4.28
2023-01-31T23:50:37.663Z,4.29
2023-01-31T23:53:03.998Z,4.20
2023-01-31T23:55:30.314Z,4.16
2023-01-31T23:57:56.709Z,4.19
